createdAt,value
2022-11-13T00:02:12.881Z,85.00
2022-11-13T00:04:56.711Z,89.72
2022-11-13T00:07:38.550Z,83.97
2022-11-13T00:10:20.551Z,87.47
2022-11-13T00:13:02.481Z,91.73
2022-11-13T00:15:44.912Z,84.15
2022-11-13T00:18:27.344Z,87.95
2022-11-13T00:21:15.464Z,84.57
2022-11-13T00:23:58.110Z,92.75
2022-11-13T00:26:40.190Z,90.27
2022-11-13T00:29:22.258Z,91.53
2022-11-13T00:32:04.358Z,92.88
2022-11-13T00:34:47.988Z,88.90
2022-11-13T00:37:32.018Z,88.50
2022-11-13T00:40:14.495Z,90.50
2022-11-13T00:42:56.514Z,90.00
2022-11-13T00:45:38.659Z,89.13
2022-11-13T00:48:21.885Z,89.70
2022-11-13T00:51:05.116Z,85.22
2022-11-13T00:53:48.846Z,85.68
2022-11-13T00:56:31.020Z,80.53
2022-11-13T00:59:13.402Z,81.68
2022-11-13T01:01:55.350Z,76.75
2022-11-13T01:04:37.450Z,83.55
2022-11-13T01:07:19.569Z,87.20
2022-11-13T01:10:03.329Z,85.53
2022-11-13T01:12:45.741Z,83.90
2022-11-13T01:15:28.135Z,87.85
2022-11-13T01:18:10.810Z,84.18
2022-11-13T01:20:53.599Z,82.95
2022-11-13T01:23:36.511Z,86.05
2022-11-13T01:26:22.967Z,84.85
2022-11-13T01:29:07.138Z,82.82
2022-11-13T01:31:49.035Z,83.53
2022-11-13T01:34:31.087Z,82.03
2022-11-13T01:37:13.075Z,78.00
2022-11-13T01:39:55.287Z,80.40
2022-11-13T01:42:38.879Z,82.15
2022-11-13T01:46:07.770Z,86.72
2022-11-13T01:48:54.461Z,76.65
2022-11-13T01:51:41.384Z,79.40
2022-11-13T01:54:27.578Z,77.55
2022-11-13T01:57:10.125Z,75.47
2022-11-13T02:00:00.530Z,80.90
2022-11-13T02:02:42.486Z,78.28
2022-11-13T02:05:24.643Z,76.57
2022-11-13T02:08:07.059Z,79.55
2022-11-13T02:10:49.729Z,76.20
2022-11-13T02:13:31.739Z,75.22
2022-11-13T02:16:16.599Z,76.93
2022-11-13T02:18:59.355Z,73.82
2022-11-13T02:21:52.016Z,73.38
2022-11-13T02:24:43.350Z,73.97
2022-11-13T02:27:37.634Z,74.75
2022-11-13T02:30:27.194Z,70.72
2022-11-13T02:33:24.929Z,72.78
2022-11-13T02:36:09.662Z,71.55
2022-11-13T02:38:53.734Z,69.22
2022-11-13T02:41:38.507Z,70.80
2022-11-13T02:44:20.676Z,69.60
2022-11-13T02:47:03.017Z,67.00
2022-11-13T02:49:45.262Z,69.60
2022-11-13T02:52:27.670Z,65.35
2022-11-13T02:55:11.081Z,59.25
2022-11-13T02:57:54.475Z,60.10
2022-11-13T03:00:36.737Z,61.15
2022-11-13T03:03:41.076Z,61.92
2022-11-13T03:06:21.199Z,61.28
2022-11-13T03:09:03.393Z,56.72
2022-11-13T03:11:45.707Z,48.15
2022-11-13T03:14:29.214Z,34.90
2022-11-13T03:17:11.393Z,31.20
2022-11-13T03:19:53.433Z,34.70
2022-11-13T03:22:35.665Z,33.08
2022-11-13T03:25:17.741Z,38.25
2022-11-13T03:28:00.134Z,33.92
2022-11-13T03:30:43.478Z,36.80
2022-11-13T03:33:26.557Z,34.97
2022-11-13T03:36:09.444Z,35.63
2022-11-13T03:38:51.954Z,34.28
2022-11-13T03:41:34.120Z,32.28
2022-11-13T03:44:16.535Z,33.83
2022-11-13T03:47:00.266Z,32.88
2022-11-13T03:49:42.337Z,33.03
2022-11-13T03:52:24.492Z,32.85
2022-11-13T03:55:07.549Z,31.40
2022-11-13T03:57:49.819Z,32.10
2022-11-13T04:00:32.399Z,32.28
2022-11-13T04:03:16.022Z,29.15
2022-11-13T04:05:58.001Z,30.65
2022-11-13T04:08:40.109Z,30.20
2022-11-13T04:11:22.026Z,28.63
2022-11-13T04:14:04.053Z,26.50
2022-11-13T04:16:46.440Z,24.80
2022-11-13T04:19:29.796Z,21.88
2022-11-13T04:22:12.537Z,21.73
2022-11-13T04:24:54.568Z,20.50
2022-11-13T04:27:37.397Z,20.83
2022-11-13T04:30:21.810Z,21.80
2022-11-13T04:33:04.154Z,19.25
2022-11-13T04:35:48.523Z,21.05
2022-11-13T04:38:31.588Z,20.85
2022-11-13T04:41:32.471Z,20.33
2022-11-13T04:44:14.965Z,18.95
2022-11-13T04:46:56.649Z,18.80
2022-11-13T04:49:38.433Z,20.27
2022-11-13T04:52:21.765Z,19.98
2022-11-13T04:55:04.123Z,18.52
2022-11-13T04:57:46.453Z,18.85
2022-11-13T05:00:28.367Z,19.88
2022-11-13T05:03:10.586Z,18.50
2022-11-13T05:05:52.974Z,18.90
2022-11-13T05:08:36.912Z,16.88
2022-11-13T05:11:19.054Z,20.30
2022-11-13T05:14:03.660Z,20.80
2022-11-13T05:16:46.109Z,20.45
2022-11-13T05:19:28.002Z,21.70
2022-11-13T05:22:10.585Z,21.25
2022-11-13T05:24:54.067Z,21.45
2022-11-13T05:27:36.221Z,22.25
2022-11-13T05:30:18.578Z,21.50
2022-11-13T05:33:00.679Z,21.60
2022-11-13T05:35:42.734Z,22.08
2022-11-13T05:38:24.652Z,21.55
2022-11-13T05:41:10.795Z,21.20
2022-11-13T05:43:58.175Z,22.90
2022-11-13T05:46:41.382Z,22.45
2022-11-13T05:49:23.474Z,20.80
2022-11-13T05:52:05.645Z,21.90
2022-11-13T05:54:47.729Z,20.10
2022-11-13T05:57:31.267Z,22.05
2022-11-13T06:00:15.346Z,21.90
2022-11-13T06:02:57.583Z,21.50
2022-11-13T06:05:40.248Z,20.83
2022-11-13T06:08:22.443Z,19.80
2022-11-13T06:11:07.365Z,19.35
2022-11-13T06:13:52.167Z,18.73
2022-11-13T06:16:38.055Z,18.05
2022-11-13T06:19:20.493Z,18.00
2022-11-13T06:22:02.346Z,17.67
2022-11-13T06:24:44.493Z,19.13
2022-11-13T06:27:26.432Z,19.95
2022-11-13T06:30:12.447Z,19.10
2022-11-13T06:32:55.368Z,18.85
2022-11-13T06:35:37.350Z,19.50
2022-11-13T06:38:19.819Z,20.23
2022-11-13T06:41:02.022Z,18.90
2022-11-13T06:43:44.998Z,19.92
2022-11-13T06:46:30.207Z,19.13
2022-11-13T06:49:12.155Z,20.50
2022-11-13T06:51:54.634Z,21.42
2022-11-13T06:54:36.759Z,21.15
2022-11-13T06:57:18.831Z,20.15
2022-11-13T07:00:01.262Z,20.80
2022-11-13T07:02:44.705Z,20.80
2022-11-13T07:05:26.954Z,20.20
2022-11-13T07:08:09.189Z,19.30
2022-11-13T07:10:55.777Z,19.63
2022-11-13T07:13:39.894Z,18.48
2022-11-13T07:16:22.149Z,18.13
2022-11-13T07:19:06.619Z,16.63
2022-11-13T07:21:49.071Z,17.60
2022-11-13T07:24:30.846Z,16.63
2022-11-13T07:27:13.354Z,18.05
2022-11-13T07:29:59.493Z,17.42
2022-11-13T07:32:44.149Z,18.08
2022-11-13T07:35:27.243Z,17.13
2022-11-13T07:38:09.552Z,16.65
2022-11-13T07:40:51.822Z,16.90
2022-11-13T07:43:33.811Z,16.75
2022-11-13T07:46:15.860Z,17.38
2022-11-13T07:48:58.022Z,16.90
2022-11-13T07:51:41.677Z,17.00
2022-11-13T07:54:23.808Z,17.48
2022-11-13T07:57:05.749Z,17.77
2022-11-13T07:59:48.095Z,18.13
2022-11-13T08:02:30.279Z,18.85
2022-11-13T08:05:12.180Z,18.05
2022-11-13T08:07:55.894Z,17.17
2022-11-13T08:10:38.018Z,16.45
2022-11-13T08:13:20.097Z,17.25
2022-11-13T08:16:03.161Z,17.70
2022-11-13T08:18:44.920Z,17.63
2022-11-13T08:21:26.933Z,15.75
2022-11-13T08:24:11.348Z,15.85
2022-11-13T08:26:53.567Z,15.50
2022-11-13T08:29:37.431Z,14.48
2022-11-13T08:32:22.563Z,14.90
2022-11-13T08:35:04.730Z,15.10
2022-11-13T08:37:46.861Z,14.85
2022-11-13T08:40:30.388Z,14.95
2022-11-13T08:43:12.721Z,15.20
2022-11-13T08:45:55.825Z,13.77
2022-11-13T08:48:37.775Z,14.95
2022-11-13T08:51:19.971Z,14.90
2022-11-13T08:54:02.106Z,15.15
2022-11-13T08:56:51.534Z,15.32
2022-11-13T08:59:37.871Z,15.02
2022-11-13T09:02:20.521Z,15.80
2022-11-13T09:05:02.583Z,15.38
2022-11-13T09:07:45.017Z,14.68
2022-11-13T09:10:28.234Z,14.63
2022-11-13T09:13:12.826Z,16.13
2022-11-13T09:15:54.883Z,16.60
2022-11-13T09:18:37.354Z,16.98
2022-11-13T09:21:19.956Z,17.05
2022-11-13T09:24:02.261Z,17.20
2022-11-13T09:26:44.687Z,21.13
2022-11-13T09:29:28.902Z,23.63
2022-11-13T09:32:11.507Z,22.55
2022-11-13T09:34:53.504Z,19.27
2022-11-13T09:37:35.624Z,22.13
2022-11-13T09:40:30.054Z,19.27
2022-11-13T09:43:31.767Z,18.60
2022-11-13T09:46:21.823Z,20.65
2022-11-13T09:49:15.954Z,21.55
2022-11-13T09:52:06.391Z,21.35
2022-11-13T09:54:49.117Z,21.90
2022-11-13T09:57:44.296Z,20.35
2022-11-13T10:00:26.407Z,17.52
2022-11-13T10:03:54.016Z,19.48
2022-11-13T10:06:43.342Z,17.35
2022-11-13T10:09:38.318Z,17.63
2022-11-13T10:12:22.341Z,18.25
2022-11-13T10:15:07.193Z,16.98
2022-11-13T10:17:56.869Z,19.00
2022-11-13T10:20:44.591Z,17.55
2022-11-13T10:23:31.528Z,18.20
2022-11-13T10:26:17.249Z,18.58
2022-11-13T10:29:07.430Z,18.02
2022-11-13T10:31:53.559Z,17.75
2022-11-13T10:34:36.137Z,17.08
2022-11-13T10:37:31.853Z,17.05
2022-11-13T10:40:26.298Z,18.25
2022-11-13T10:43:15.733Z,17.20
2022-11-13T10:46:00.165Z,19.55
2022-11-13T10:48:42.317Z,18.15
2022-11-13T10:51:27.637Z,19.20
2022-11-13T10:54:28.740Z,14.90
2022-11-13T10:57:30.222Z,18.75
2022-11-13T11:00:27.336Z,17.92
2022-11-13T11:03:10.897Z,18.17
2022-11-13T11:06:03.958Z,17.55
2022-11-13T11:08:47.044Z,18.35
2022-11-13T11:11:48.459Z,16.85
2022-11-13T11:14:36.353Z,18.92
2022-11-13T11:17:22.749Z,18.52
2022-11-13T11:20:18.117Z,18.27
2022-11-13T11:23:10.519Z,19.45
2022-11-13T11:25:58.697Z,18.55
2022-11-13T11:28:48.952Z,18.27
2022-11-13T11:31:38.741Z,19.20
2022-11-13T11:34:27.863Z,18.38
2022-11-13T11:37:15.895Z,19.00
2022-11-13T11:40:05.596Z,20.67
2022-11-13T11:42:55.506Z,20.33
2022-11-13T11:45:42.429Z,17.52
2022-11-13T11:48:31.006Z,17.70
2022-11-13T11:51:24.883Z,19.15
2022-11-13T11:54:30.412Z,18.35
2022-11-13T11:57:34.434Z,17.83
2022-11-13T12:00:19.985Z,18.70
2022-11-13T12:03:48.249Z,19.13
2022-11-13T12:06:44.662Z,17.85
2022-11-13T12:09:31.307Z,17.98
2022-11-13T12:12:26.038Z,18.17
2022-11-13T12:15:18.202Z,18.75
2022-11-13T12:18:10.709Z,16.92
2022-11-13T12:21:04.056Z,17.92
2022-11-13T12:24:30.094Z,17.25
2022-11-13T12:27:26.849Z,17.55
2022-11-13T12:30:19.006Z,18.73
2022-11-13T12:33:24.854Z,19.05
2022-11-13T12:36:12.322Z,18.05
2022-11-13T12:39:04.549Z,17.50
2022-11-13T12:41:51.589Z,18.38
2022-11-13T12:44:48.471Z,16.63
2022-11-13T12:47:30.582Z,16.85
2022-11-13T12:50:31.780Z,16.83
2022-11-13T12:53:27.745Z,18.25
2022-11-13T12:56:19.212Z,18.98
2022-11-13T13:02:34.025Z,18.00
2022-11-13T13:05:30.976Z,17.40
2022-11-13T13:08:48.833Z,17.55
2022-11-13T13:11:42.425Z,16.25
2022-11-13T13:15:02.062Z,17.02
2022-11-13T13:17:44.487Z,17.30
2022-11-13T13:20:35.219Z,17.48
2022-11-13T13:23:30.409Z,17.58
2022-11-13T13:26:19.859Z,17.83
2022-11-13T13:29:19.033Z,17.52
2022-11-13T13:32:17.872Z,17.77
2022-11-13T13:35:13.763Z,17.35
2022-11-13T13:38:03.348Z,18.02
2022-11-13T13:41:18.260Z,17.08
2022-11-13T13:44:36.919Z,16.63
2022-11-13T13:47:26.376Z,16.17
2022-11-13T13:50:15.449Z,17.15
2022-11-13T13:52:59.371Z,17.52
2022-11-13T13:55:51.624Z,15.57
2022-11-13T13:58:36.569Z,17.35
2022-11-13T14:01:29.826Z,18.02
2022-11-13T14:04:19.634Z,16.85
2022-11-13T14:07:03.388Z,16.90
2022-11-13T14:09:45.729Z,18.17
2022-11-13T14:12:29.590Z,19.42
2022-11-13T14:15:26.390Z,18.80
2022-11-13T14:20:57.440Z,18.77
2022-11-13T14:23:44.438Z,19.38
2022-11-13T14:26:27.301Z,17.50
2022-11-13T14:29:32.099Z,18.77
2022-11-13T14:32:22.327Z,18.50
2022-11-13T14:35:08.270Z,18.77
2022-11-13T14:37:50.774Z,19.63
2022-11-13T14:40:35.731Z,18.85
2022-11-13T14:43:22.445Z,18.63
2022-11-13T14:46:08.273Z,19.77
2022-11-13T14:48:55.197Z,18.52
2022-11-13T14:51:37.535Z,19.90
2022-11-13T14:54:53.330Z,20.33
2022-11-13T14:57:34.225Z,20.17
2022-11-13T15:00:19.331Z,20.88
2022-11-13T15:03:05.132Z,21.17
2022-11-13T15:05:47.609Z,21.50
2022-11-13T15:08:30.020Z,21.50
2022-11-13T15:11:16.223Z,21.30
2022-11-13T15:14:03.992Z,23.08
2022-11-13T15:16:48.417Z,21.42
2022-11-13T15:19:34.894Z,21.98
2022-11-13T15:22:27.123Z,21.90
2022-11-13T15:25:16.071Z,23.65
2022-11-13T15:27:57.818Z,22.67
2022-11-13T15:30:39.962Z,23.05
2022-11-13T15:33:22.937Z,22.70
2022-11-13T15:36:07.133Z,23.52
2022-11-13T15:38:49.207Z,23.98
2022-11-13T15:41:33.177Z,22.60
2022-11-13T15:44:16.413Z,23.83
2022-11-13T15:46:58.759Z,25.58
2022-11-13T15:49:51.366Z,24.08
2022-11-13T15:52:47.681Z,24.70
2022-11-13T15:55:32.741Z,25.63
2022-11-13T15:58:16.899Z,26.50
2022-11-13T16:00:58.963Z,27.85
2022-11-13T16:03:41.476Z,28.13
2022-11-13T16:06:25.004Z,27.55
2022-11-13T16:09:14.489Z,26.90
2022-11-13T16:11:57.113Z,26.42
2022-11-13T16:14:39.410Z,24.75
2022-11-13T16:17:21.594Z,25.77
2022-11-13T16:20:07.546Z,26.67
2022-11-13T16:22:49.958Z,26.88
2022-11-13T16:25:33.458Z,25.48
2022-11-13T16:28:17.371Z,26.63
2022-11-13T16:30:59.370Z,27.10
2022-11-13T16:33:43.067Z,26.98
2022-11-13T16:36:26.869Z,27.33
2022-11-13T16:39:16.017Z,27.42
2022-11-13T16:41:59.330Z,27.63
2022-11-13T16:44:42.515Z,27.00
2022-11-13T16:47:27.259Z,27.52
2022-11-13T16:50:15.820Z,28.30
2022-11-13T16:52:58.252Z,27.38
2022-11-13T16:55:40.638Z,27.48
2022-11-13T16:58:23.905Z,28.23
2022-11-13T17:01:06.969Z,29.00
2022-11-13T17:03:49.714Z,29.35
2022-11-13T17:06:33.517Z,29.27
2022-11-13T17:09:15.926Z,29.90
2022-11-13T17:11:57.741Z,29.42
2022-11-13T17:14:41.587Z,29.90
2022-11-13T17:17:24.015Z,30.77
2022-11-13T17:20:07.164Z,30.75
2022-11-13T17:22:49.417Z,29.55
2022-11-13T17:25:31.600Z,31.30
2022-11-13T17:28:13.613Z,29.63
2022-11-13T17:31:02.985Z,30.88
2022-11-13T17:33:44.906Z,30.02
2022-11-13T17:36:26.959Z,29.63
2022-11-13T17:39:08.917Z,31.92
2022-11-13T17:41:51.388Z,31.83
2022-11-13T17:44:33.491Z,33.47
2022-11-13T17:47:17.579Z,33.13
2022-11-13T17:50:05.613Z,31.38
2022-11-13T17:52:49.415Z,31.50
2022-11-13T17:55:31.257Z,30.42
2022-11-13T17:58:13.061Z,29.92
2022-11-13T18:00:56.081Z,29.90
2022-11-13T18:03:39.949Z,29.45
2022-11-13T18:06:22.939Z,28.40
2022-11-13T18:09:06.365Z,28.83
2022-11-13T18:11:48.837Z,28.38
2022-11-13T18:14:31.233Z,27.23
2022-11-13T18:17:13.259Z,28.00
2022-11-13T18:20:01.455Z,27.48
2022-11-13T18:22:44.348Z,26.38
2022-11-13T18:25:26.890Z,28.05
2022-11-13T18:28:09.138Z,24.08
2022-11-13T18:30:56.253Z,26.95
2022-11-13T18:33:39.091Z,22.80
2022-11-13T18:36:22.891Z,27.92
2022-11-13T18:39:05.760Z,28.67
2022-11-13T18:41:48.651Z,28.00
2022-11-13T18:44:30.860Z,27.15
2022-11-13T18:47:13.173Z,27.02
2022-11-13T18:49:55.644Z,25.55
2022-11-13T18:52:39.595Z,27.25
2022-11-13T18:55:21.666Z,26.45
2022-11-13T18:58:03.783Z,27.13
2022-11-13T19:00:46.241Z,23.83
2022-11-13T19:03:29.041Z,29.70
2022-11-13T19:06:15.088Z,28.77
2022-11-13T19:09:01.940Z,26.77
2022-11-13T19:11:45.483Z,28.17
2022-11-13T19:14:27.314Z,28.52
2022-11-13T19:17:09.841Z,27.45
2022-11-13T19:19:52.246Z,27.58
2022-11-13T19:22:34.610Z,27.92
2022-11-13T19:25:18.475Z,28.85
2022-11-13T19:28:00.800Z,29.52
2022-11-13T19:30:47.571Z,28.95
2022-11-13T19:33:30.107Z,29.77
2022-11-13T19:36:15.456Z,29.58
2022-11-13T19:38:58.936Z,32.08
2022-11-13T19:41:42.442Z,31.17
2022-11-13T19:44:24.548Z,29.80
2022-11-13T19:47:06.669Z,29.80
2022-11-13T19:49:48.615Z,30.80
2022-11-13T19:52:30.994Z,27.42
2022-11-13T19:55:13.286Z,26.83
2022-11-13T19:57:57.138Z,27.20
2022-11-13T20:00:39.022Z,27.77
2022-11-13T20:03:21.250Z,31.10
2022-11-13T20:06:03.708Z,28.88
2022-11-13T20:08:46.074Z,27.05
2022-11-13T20:11:28.222Z,28.50
2022-11-13T20:14:13.612Z,28.23
2022-11-13T20:16:55.822Z,27.70
2022-11-13T20:19:37.805Z,27.85
2022-11-13T20:22:19.625Z,27.23
2022-11-13T20:25:01.747Z,26.15
2022-11-13T20:27:47.353Z,29.52
2022-11-13T20:30:30.992Z,27.02
2022-11-13T20:33:16.145Z,26.58
2022-11-13T20:36:00.915Z,26.50
2022-11-13T20:38:44.563Z,25.67
2022-11-13T20:41:27.453Z,27.38
2022-11-13T20:44:09.755Z,26.25
2022-11-13T20:46:52.973Z,27.13
2022-11-13T20:49:35.296Z,29.13
2022-11-13T20:52:17.470Z,25.08
2022-11-13T20:54:59.658Z,27.73
2022-11-13T20:57:42.136Z,26.55
2022-11-13T21:00:24.473Z,27.13
2022-11-13T21:03:07.869Z,25.60
2022-11-13T21:05:49.964Z,27.48
2022-11-13T21:08:32.099Z,25.75
2022-11-13T21:11:19.043Z,27.10
2022-11-13T21:14:01.564Z,26.42
2022-11-13T21:16:43.859Z,27.33
2022-11-13T21:19:27.648Z,28.42
2022-11-13T21:22:09.724Z,26.25
2022-11-13T21:24:51.753Z,26.33
2022-11-13T21:27:33.757Z,28.10
2022-11-13T21:30:16.586Z,29.65
2022-11-13T21:33:00.277Z,29.85
2022-11-13T21:35:44.112Z,27.88
2022-11-13T21:38:26.415Z,30.02
2022-11-13T21:41:24.599Z,32.10
2022-11-13T21:44:10.527Z,30.17
2022-11-13T21:46:52.355Z,32.97
2022-11-13T21:49:34.211Z,31.30
2022-11-13T21:52:18.228Z,33.58
2022-11-13T21:55:00.609Z,31.83
2022-11-13T21:57:42.689Z,32.75
2022-11-13T22:00:24.622Z,32.13
2022-11-13T22:03:07.012Z,31.63
2022-11-13T22:05:50.096Z,30.73
2022-11-13T22:08:33.733Z,31.27
2022-11-13T22:11:16.060Z,31.30
2022-11-13T22:13:58.623Z,31.17
2022-11-13T22:16:46.212Z,30.67
2022-11-13T22:19:35.984Z,32.90
2022-11-13T22:22:19.126Z,31.25
2022-11-13T22:25:02.792Z,31.60
2022-11-13T22:27:45.553Z,32.03
2022-11-13T22:30:27.714Z,31.75
2022-11-13T22:33:11.126Z,33.55
2022-11-13T22:35:54.218Z,33.60
2022-11-13T22:38:36.897Z,31.33
2022-11-13T22:41:24.293Z,34.67
2022-11-13T22:44:09.447Z,31.55
2022-11-13T22:46:51.741Z,35.15
2022-11-13T22:49:34.362Z,32.35
2022-11-13T22:52:16.850Z,32.60
2022-11-13T22:54:59.122Z,34.53
2022-11-13T22:57:43.101Z,33.80
2022-11-13T23:00:25.448Z,27.52
2022-11-13T23:03:07.565Z,35.95
2022-11-13T23:05:49.695Z,37.30
2022-11-13T23:08:32.695Z,34.95
2022-11-13T23:11:17.541Z,30.98
2022-11-13T23:14:03.669Z,33.03
2022-11-13T23:16:49.317Z,37.03
2022-11-13T23:19:32.156Z,38.67
2022-11-13T23:22:18.068Z,38.10
2022-11-13T23:25:00.883Z,37.88
2022-11-13T23:27:43.884Z,37.90
2022-11-13T23:30:28.235Z,38.38
2022-11-13T23:33:10.564Z,38.55
2022-11-13T23:35:53.311Z,38.72
2022-11-13T23:38:35.442Z,36.85
2022-11-13T23:41:17.630Z,40.50
2022-11-13T23:44:09.588Z,37.47
2022-11-13T23:46:54.223Z,39.33
2022-11-13T23:49:37.364Z,39.03
2022-11-13T23:52:19.942Z,39.83
2022-11-13T23:55:02.521Z,38.15
2022-11-13T23:57:44.687Z,40.58
